createdAt,value
2019-05-09T00:02:35.687Z,80.31
2019-05-09T00:05:23.308Z,80.33
2019-05-09T00:08:09.858Z,79.89
2019-05-09T00:10:55.834Z,80.09
2019-05-09T00:13:43.476Z,79.94
2019-05-09T00:16:29.883Z,79.85
2019-05-09T00:19:18.065Z,79.85
2019-05-09T00:22:04.418Z,79.75
2019-05-09T00:24:50.691Z,79.44
2019-05-09T00:27:36.602Z,79.73
2019-05-09T00:30:44.358Z,79.21
2019-05-09T00:33:31.154Z,79.04
2019-05-09T00:36:17.158Z,79.42
2019-05-09T00:39:04.221Z,79.41
2019-05-09T00:41:50.595Z,79.43
2019-05-09T00:44:38.433Z,79.30
2019-05-09T00:47:27.107Z,79.36
2019-05-09T00:50:13.267Z,79.73
2019-05-09T00:52:59.506Z,79.04
2019-05-09T00:55:45.735Z,79.29
2019-05-09T00:58:33.418Z,78.92
2019-05-09T01:01:20.032Z,78.34
2019-05-09T01:04:06.363Z,78.25
2019-05-09T01:06:54.023Z,77.76
2019-05-09T01:09:40.535Z,77.84
2019-05-09T01:12:34.402Z,77.78
2019-05-09T01:15:20.568Z,77.91
2019-05-09T01:18:06.702Z,77.81
2019-05-09T01:20:53.166Z,77.20
2019-05-09T01:23:39.361Z,76.78
2019-05-09T01:26:25.336Z,77.13
2019-05-09T01:29:13.559Z,76.79
2019-05-09T01:32:03.411Z,76.97
2019-05-09T01:34:48.858Z,77.52
2019-05-09T01:37:34.975Z,77.86
2019-05-09T01:40:21.001Z,77.63
2019-05-09T01:43:07.077Z,78.07
2019-05-09T01:45:54.035Z,78.30
2019-05-09T01:48:46.109Z,78.19
2019-05-09T01:51:33.743Z,78.73
2019-05-09T01:54:23.589Z,78.65
2019-05-09T01:57:09.515Z,78.49
2019-05-09T01:59:55.789Z,78.11
2019-05-09T02:02:43.320Z,77.74
2019-05-09T02:05:30.079Z,77.21
2019-05-09T02:08:15.988Z,76.87
2019-05-09T02:11:03.846Z,76.35
2019-05-09T02:13:49.848Z,76.25
2019-05-09T02:16:49.217Z,75.43
2019-05-09T02:19:37.727Z,75.41
2019-05-09T02:22:36.291Z,75.47
2019-05-09T02:25:25.484Z,75.58
2019-05-09T02:28:11.503Z,75.08
2019-05-09T02:30:57.475Z,75.20
2019-05-09T02:33:45.493Z,75.12
2019-05-09T02:36:31.383Z,74.79
2019-05-09T02:39:18.879Z,74.90
2019-05-09T02:42:10.745Z,74.96
2019-05-09T02:44:53.259Z,75.13
2019-05-09T02:47:39.190Z,74.86
2019-05-09T02:50:28.364Z,75.17
2019-05-09T02:53:13.216Z,75.39
2019-05-09T02:55:59.149Z,75.76
2019-05-09T02:59:18.904Z,76.11
2019-05-09T03:02:21.395Z,76.21
2019-05-09T03:05:08.843Z,76.22
2019-05-09T03:07:54.990Z,76.63
2019-05-09T03:10:41.150Z,77.20
2019-05-09T03:13:29.244Z,77.81
2019-05-09T03:16:19.094Z,78.51
2019-05-09T03:19:04.977Z,79.07
2019-05-09T03:21:58.596Z,79.51
2019-05-09T03:24:48.304Z,80.08
2019-05-09T03:27:35.478Z,80.35
2019-05-09T03:30:29.049Z,80.91
2019-05-09T03:33:14.106Z,81.20
2019-05-09T03:36:00.330Z,81.45
2019-05-09T03:38:47.572Z,81.70
2019-05-09T03:41:33.903Z,81.91
2019-05-09T03:44:19.781Z,82.11
2019-05-09T03:47:24.873Z,82.12
2019-05-09T03:50:13.463Z,82.17
2019-05-09T03:52:59.502Z,82.08
2019-05-09T03:55:47.473Z,82.06
2019-05-09T03:58:33.210Z,81.91
2019-05-09T04:01:19.330Z,82.13
2019-05-09T04:04:05.857Z,82.32
2019-05-09T04:06:52.044Z,82.24
2019-05-09T04:09:39.820Z,82.11
2019-05-09T04:12:28.234Z,82.14
2019-05-09T04:15:14.076Z,82.13
2019-05-09T04:18:00.334Z,82.21
2019-05-09T04:20:48.222Z,82.44
2019-05-09T04:23:34.137Z,82.40
2019-05-09T04:26:51.456Z,82.49
2019-05-09T04:29:37.540Z,82.89
2019-05-09T04:32:23.880Z,83.20
2019-05-09T04:35:09.883Z,83.09
2019-05-09T04:37:58.283Z,83.00
2019-05-09T04:40:45.932Z,83.00
2019-05-09T04:43:36.705Z,83.20
2019-05-09T04:46:24.466Z,83.15
2019-05-09T04:49:09.598Z,82.85
2019-05-09T04:51:58.258Z,82.70
2019-05-09T04:54:43.711Z,82.47
2019-05-09T04:57:29.857Z,82.22
2019-05-09T05:00:19.315Z,81.26
2019-05-09T05:03:05.373Z,80.56
2019-05-09T05:05:51.371Z,80.16
2019-05-09T05:08:37.603Z,79.71
2019-05-09T05:11:24.235Z,78.95
2019-05-09T05:14:21.427Z,78.70
2019-05-09T05:17:11.193Z,78.72
2019-05-09T05:19:57.872Z,78.38
2019-05-09T05:22:48.425Z,77.44
2019-05-09T05:25:34.735Z,76.90
2019-05-09T05:28:20.722Z,77.11
2019-05-09T05:31:07.437Z,76.62
2019-05-09T05:34:01.240Z,76.62
2019-05-09T05:36:47.733Z,76.11
2019-05-09T05:39:34.010Z,76.05
2019-05-09T05:42:22.252Z,75.51
2019-05-09T05:45:08.313Z,75.35
2019-05-09T05:47:59.081Z,74.79
2019-05-09T05:50:45.112Z,74.05
2019-05-09T05:53:37.919Z,75.02
2019-05-09T05:56:23.875Z,74.09
2019-05-09T05:59:10.080Z,73.36
2019-05-09T06:01:58.321Z,72.93
2019-05-09T06:04:45.075Z,72.22
2019-05-09T06:07:31.295Z,72.14
2019-05-09T06:10:18.688Z,72.37
2019-05-09T06:13:08.026Z,72.60
2019-05-09T06:15:54.096Z,71.78
2019-05-09T06:18:40.151Z,71.71
2019-05-09T06:21:28.231Z,71.50
2019-05-09T06:24:14.478Z,71.48
2019-05-09T06:27:00.446Z,70.63
2019-05-09T06:29:47.727Z,71.13
2019-05-09T06:32:34.094Z,71.08
2019-05-09T06:35:22.990Z,70.71
2019-05-09T06:38:09.035Z,70.62
2019-05-09T06:40:55.073Z,71.01
2019-05-09T06:43:42.789Z,69.65
2019-05-09T06:46:40.450Z,69.98
2019-05-09T06:49:31.980Z,69.95
2019-05-09T06:52:18.264Z,69.02
2019-05-09T06:55:04.308Z,68.18
2019-05-09T06:57:50.557Z,68.19
2019-05-09T07:00:53.963Z,67.81
2019-05-09T07:03:40.562Z,68.34
2019-05-09T07:06:48.522Z,68.47
2019-05-09T07:09:43.373Z,68.13
2019-05-09T07:12:29.317Z,68.03
2019-05-09T07:15:17.626Z,67.85
2019-05-09T07:18:03.222Z,67.89
2019-05-09T07:20:49.588Z,67.02
2019-05-09T07:23:37.333Z,66.56
2019-05-09T07:26:28.171Z,66.73
2019-05-09T07:29:14.300Z,65.73
2019-05-09T07:32:09.823Z,64.99
2019-05-09T07:35:01.581Z,64.41
2019-05-09T07:37:48.859Z,64.62
2019-05-09T07:40:35.327Z,64.22
2019-05-09T07:43:21.281Z,63.20
2019-05-09T07:46:10.153Z,63.17
2019-05-09T07:48:57.825Z,63.74
2019-05-09T07:51:44.139Z,62.51
2019-05-09T07:54:31.116Z,61.82
2019-05-09T07:57:18.279Z,61.09
2019-05-09T08:00:04.965Z,60.97
2019-05-09T08:02:50.923Z,61.55
2019-05-09T08:05:38.546Z,60.69
2019-05-09T08:08:27.657Z,60.65
2019-05-09T08:11:13.369Z,60.71
2019-05-09T08:13:59.501Z,60.41
2019-05-09T08:16:47.545Z,60.60
2019-05-09T08:19:33.696Z,60.73
2019-05-09T08:22:25.366Z,59.62
2019-05-09T08:25:08.407Z,59.28
2019-05-09T08:27:54.884Z,59.11
2019-05-09T08:30:40.725Z,58.95
2019-05-09T08:33:28.777Z,57.41
2019-05-09T08:36:14.991Z,56.83
2019-05-09T08:39:01.076Z,56.08
2019-05-09T08:41:48.539Z,56.55
2019-05-09T08:44:37.750Z,56.89
2019-05-09T08:47:23.086Z,56.33
2019-05-09T08:50:17.798Z,54.11
2019-05-09T08:53:08.230Z,54.28
2019-05-09T08:55:54.036Z,54.39
2019-05-09T08:58:40.770Z,54.54
2019-05-09T09:01:46.141Z,54.63
2019-05-09T09:04:15.042Z,55.09
2019-05-09T09:07:01.358Z,56.24
2019-05-09T09:09:48.288Z,55.92
2019-05-09T09:12:34.710Z,56.33
2019-05-09T09:15:20.864Z,55.72
2019-05-09T09:18:08.531Z,56.82
2019-05-09T09:20:55.611Z,57.05
2019-05-09T09:23:46.781Z,56.96
2019-05-09T09:26:30.033Z,57.96
2019-05-09T09:29:17.819Z,57.68
2019-05-09T09:32:04.233Z,59.03
2019-05-09T09:34:50.172Z,59.75
2019-05-09T09:37:48.172Z,58.02
2019-05-09T09:40:24.319Z,58.22
2019-05-09T09:43:10.407Z,57.91
2019-05-09T09:46:10.125Z,57.75
2019-05-09T09:48:44.574Z,55.96
2019-05-09T09:51:30.571Z,55.05
2019-05-09T09:54:18.797Z,54.04
2019-05-09T09:57:05.531Z,53.39
2019-05-09T09:59:55.000Z,51.70
2019-05-09T10:02:41.266Z,52.56
2019-05-09T10:05:27.847Z,50.91
2019-05-09T10:08:14.851Z,51.08
2019-05-09T10:11:03.983Z,51.84
2019-05-09T10:13:52.031Z,53.97
2019-05-09T10:16:58.140Z,53.82
2019-05-09T10:19:52.407Z,54.41
2019-05-09T10:22:46.091Z,53.67
2019-05-09T10:25:27.676Z,53.50
2019-05-09T10:28:13.670Z,51.89
2019-05-09T10:30:59.620Z,50.88
2019-05-09T10:33:48.237Z,50.64
2019-05-09T10:36:33.832Z,50.15
2019-05-09T10:39:20.108Z,50.56
2019-05-09T10:42:14.594Z,50.30
2019-05-09T10:45:29.894Z,49.60
2019-05-09T10:48:16.110Z,50.06
2019-05-09T10:51:05.475Z,50.25
2019-05-09T10:53:53.632Z,50.48
2019-05-09T10:56:39.829Z,50.27
2019-05-09T10:59:25.947Z,50.96
2019-05-09T11:02:12.224Z,51.06
2019-05-09T11:04:58.439Z,51.33
2019-05-09T11:07:44.457Z,51.80
2019-05-09T11:10:32.750Z,52.59
2019-05-09T11:13:18.749Z,52.73
2019-05-09T11:16:07.519Z,52.66
2019-05-09T11:18:52.921Z,52.96
2019-05-09T11:21:39.522Z,51.53
2019-05-09T11:24:38.860Z,51.67
2019-05-09T11:27:13.124Z,52.00
2019-05-09T11:29:59.312Z,51.50
2019-05-09T11:32:45.367Z,50.10
2019-05-09T11:35:34.808Z,49.18
2019-05-09T11:38:32.805Z,47.99
2019-05-09T11:41:09.529Z,48.73
2019-05-09T11:43:55.888Z,47.80
2019-05-09T11:46:42.069Z,47.72
2019-05-09T11:49:29.586Z,47.63
2019-05-09T11:52:18.329Z,47.61
2019-05-09T11:55:03.689Z,48.48
2019-05-09T11:57:52.973Z,48.29
2019-05-09T12:00:39.343Z,47.56
2019-05-09T12:03:25.333Z,47.91
2019-05-09T12:06:11.874Z,48.48
2019-05-09T12:08:58.811Z,45.87
2019-05-09T12:11:45.009Z,44.10
2019-05-09T12:14:33.974Z,43.64
2019-05-09T12:17:20.061Z,43.87
2019-05-09T12:20:10.558Z,45.59
2019-05-09T12:22:54.223Z,44.41
2019-05-09T12:25:43.666Z,45.12
2019-05-09T12:28:30.177Z,45.33
2019-05-09T12:31:18.219Z,45.96
2019-05-09T12:34:08.810Z,45.62
2019-05-09T12:36:55.164Z,45.50
2019-05-09T12:39:41.086Z,46.35
2019-05-09T12:42:32.783Z,46.52
2019-05-09T12:45:22.581Z,47.26
2019-05-09T12:48:15.473Z,47.77
2019-05-09T12:50:59.680Z,48.24
2019-05-09T12:53:49.058Z,48.60
2019-05-09T12:56:38.649Z,48.41
2019-05-09T12:59:25.012Z,48.01
2019-05-09T13:02:11.397Z,47.56
2019-05-09T13:04:57.497Z,47.09
2019-05-09T13:07:43.450Z,47.74
2019-05-09T13:10:30.299Z,46.97
2019-05-09T13:13:19.767Z,46.37
2019-05-09T13:16:39.034Z,46.55
2019-05-09T13:19:14.981Z,47.08
2019-05-09T13:22:03.389Z,46.51
2019-05-09T13:24:49.653Z,46.27
2019-05-09T13:27:38.738Z,47.06
2019-05-09T13:30:24.105Z,46.49
2019-05-09T13:33:10.843Z,47.04
2019-05-09T13:35:58.342Z,46.49
2019-05-09T13:38:57.610Z,47.55
2019-05-09T13:41:32.647Z,47.20
2019-05-09T13:44:25.103Z,46.90
2019-05-09T13:47:12.840Z,45.25
2019-05-09T13:49:59.579Z,46.41
2019-05-09T13:52:48.046Z,46.01
2019-05-09T13:55:37.909Z,45.45
2019-05-09T13:58:23.172Z,45.89
2019-05-09T14:01:09.353Z,45.33
2019-05-09T14:03:57.436Z,44.50
2019-05-09T14:06:43.100Z,44.87
2019-05-09T14:09:29.557Z,44.91
2019-05-09T14:12:17.497Z,44.55
2019-05-09T14:15:04.037Z,45.61
2019-05-09T14:17:53.665Z,45.48
2019-05-09T14:20:37.893Z,46.13
2019-05-09T14:23:23.974Z,46.66
2019-05-09T14:26:10.193Z,46.34
2019-05-09T14:28:58.215Z,47.26
2019-05-09T14:31:47.468Z,47.47
2019-05-09T14:34:33.816Z,47.21
2019-05-09T14:37:19.746Z,48.34
2019-05-09T14:40:06.082Z,48.21
2019-05-09T14:42:54.715Z,48.41
2019-05-09T14:45:40.921Z,48.24
2019-05-09T14:48:30.282Z,47.99
2019-05-09T14:51:18.491Z,48.18
2019-05-09T14:54:08.310Z,48.86
2019-05-09T14:56:54.576Z,49.80
2019-05-09T14:59:41.065Z,47.79
2019-05-09T15:02:27.074Z,47.89
2019-05-09T15:05:13.120Z,45.73
2019-05-09T15:07:59.536Z,44.92
2019-05-09T15:10:45.763Z,42.37
2019-05-09T15:13:31.840Z,42.26
2019-05-09T15:16:18.564Z,41.86
2019-05-09T15:19:04.543Z,42.16
2019-05-09T15:21:50.641Z,41.71
2019-05-09T15:24:38.810Z,42.43
2019-05-09T15:27:24.687Z,42.45
2019-05-09T15:30:10.880Z,43.74
2019-05-09T15:32:58.550Z,43.66
2019-05-09T15:35:45.734Z,43.21
2019-05-09T15:38:31.717Z,43.50
2019-05-09T15:41:18.478Z,43.77
2019-05-09T15:44:04.821Z,44.29
2019-05-09T15:46:54.821Z,44.29
2019-05-09T15:49:41.029Z,43.99
2019-05-09T15:52:28.601Z,43.91
2019-05-09T15:55:14.689Z,44.67
2019-05-09T15:58:00.649Z,44.26
2019-05-09T16:00:47.735Z,45.29
2019-05-09T16:03:34.251Z,45.37
2019-05-09T16:06:20.794Z,44.85
2019-05-09T16:09:11.345Z,44.84
2019-05-09T16:11:55.714Z,44.68
2019-05-09T16:14:41.809Z,45.25
2019-05-09T16:17:28.605Z,46.18
2019-05-09T16:20:28.116Z,45.99
2019-05-09T16:23:08.222Z,46.33
2019-05-09T16:25:53.246Z,46.90
2019-05-09T16:28:39.621Z,46.33
2019-05-09T16:31:29.335Z,46.09
2019-05-09T16:34:18.230Z,45.38
2019-05-09T16:37:04.543Z,44.93
2019-05-09T16:39:50.982Z,44.95
2019-05-09T16:42:38.187Z,45.09
2019-05-09T16:45:24.453Z,44.31
2019-05-09T16:48:11.531Z,43.62
2019-05-09T16:51:01.243Z,45.29
2019-05-09T16:53:49.533Z,44.27
2019-05-09T16:56:38.178Z,45.32
2019-05-09T16:59:24.638Z,46.42
2019-05-09T17:02:21.858Z,46.92
2019-05-09T17:04:58.872Z,47.37
2019-05-09T17:07:47.520Z,46.84
2019-05-09T17:10:32.803Z,46.58
2019-05-09T17:13:18.803Z,48.58
2019-05-09T17:16:04.881Z,46.62
2019-05-09T17:18:51.511Z,46.86
2019-05-09T17:21:43.993Z,47.18
2019-05-09T17:24:30.354Z,47.73
2019-05-09T17:27:18.216Z,47.93
2019-05-09T17:30:08.623Z,48.22
2019-05-09T17:32:58.123Z,48.22
2019-05-09T17:35:43.793Z,48.79
2019-05-09T17:38:29.849Z,49.59
2019-05-09T17:41:17.724Z,49.88
2019-05-09T17:44:03.634Z,50.39
2019-05-09T17:46:49.585Z,50.64
2019-05-09T17:49:37.502Z,50.44
2019-05-09T17:52:23.506Z,50.44
2019-05-09T17:55:09.806Z,50.42
2019-05-09T17:57:58.489Z,49.96
2019-05-09T18:00:43.813Z,49.68
2019-05-09T18:03:29.794Z,49.53
2019-05-09T18:06:18.878Z,49.00
2019-05-09T18:09:08.241Z,48.61
2019-05-09T18:11:54.889Z,48.63
2019-05-09T18:14:41.101Z,49.05
2019-05-09T18:17:27.627Z,48.87
2019-05-09T18:20:13.948Z,49.05
2019-05-09T18:23:03.175Z,49.22
2019-05-09T18:25:49.409Z,49.30
2019-05-09T18:28:35.720Z,51.66
2019-05-09T18:31:23.358Z,69.66
2019-05-09T18:34:09.570Z,81.61
2019-05-09T18:36:55.843Z,94.10
2019-05-09T18:39:42.103Z,96.24
2019-05-09T18:42:28.095Z,97.23
2019-05-09T18:45:14.003Z,96.83
2019-05-09T18:48:00.011Z,97.45
2019-05-09T18:50:46.010Z,98.83
2019-05-09T18:53:31.947Z,99.16
2019-05-09T18:56:18.129Z,99.39
2019-05-09T18:59:04.290Z,100.00
2019-05-09T19:01:50.610Z,100.00
2019-05-09T19:04:36.697Z,100.00
2019-05-09T19:07:23.086Z,100.00
2019-05-09T19:10:09.257Z,100.00
2019-05-09T19:12:55.274Z,100.00
2019-05-09T19:16:00.472Z,100.00
2019-05-09T19:19:20.813Z,100.00
2019-05-09T19:22:21.540Z,100.00
2019-05-09T19:24:54.679Z,100.00
2019-05-09T19:27:40.644Z,100.00
2019-05-09T19:30:26.813Z,100.00
2019-05-09T19:33:12.721Z,100.00
2019-05-09T19:35:58.647Z,100.00
2019-05-09T19:38:44.815Z,100.00
2019-05-09T19:41:30.725Z,100.00
2019-05-09T19:44:16.702Z,100.00
2019-05-09T19:47:02.682Z,100.00
2019-05-09T19:49:48.988Z,100.00
2019-05-09T19:52:38.348Z,100.00
2019-05-09T19:55:23.323Z,100.00
2019-05-09T19:58:09.512Z,100.00
2019-05-09T20:00:55.799Z,100.00
2019-05-09T20:03:41.761Z,100.00
2019-05-09T20:06:27.700Z,100.00
2019-05-09T20:09:20.952Z,100.00
2019-05-09T20:12:28.937Z,100.00
2019-05-09T20:15:17.350Z,100.00
2019-05-09T20:18:03.811Z,100.00
2019-05-09T20:20:49.742Z,100.00
2019-05-09T20:23:35.727Z,100.00
2019-05-09T20:26:21.883Z,100.00
2019-05-09T20:29:07.713Z,100.00
2019-05-09T20:31:53.776Z,100.00
2019-05-09T20:34:39.767Z,100.00
2019-05-09T20:37:25.943Z,100.00
2019-05-09T20:40:12.738Z,100.00
2019-05-09T20:42:59.212Z,100.00
2019-05-09T20:45:45.713Z,100.00
2019-05-09T20:48:32.238Z,100.00
2019-05-09T20:51:20.769Z,100.00
2019-05-09T20:54:20.027Z,100.00
2019-05-09T20:56:55.233Z,100.00
2019-05-09T20:59:41.605Z,100.00
2019-05-09T21:02:27.910Z,100.00
2019-05-09T21:05:14.363Z,100.00
2019-05-09T21:08:00.693Z,100.00
2019-05-09T21:10:55.539Z,100.00
2019-05-09T21:13:48.380Z,99.41
2019-05-09T21:16:29.835Z,99.97
2019-05-09T21:19:16.209Z,100.00
2019-05-09T21:22:02.383Z,99.82
2019-05-09T21:24:48.755Z,98.62
2019-05-09T21:27:35.062Z,97.96
2019-05-09T21:30:21.225Z,99.01
2019-05-09T21:33:07.383Z,99.28
2019-05-09T21:35:53.557Z,99.36
2019-05-09T21:38:39.818Z,98.17
2019-05-09T21:41:26.125Z,98.06
2019-05-09T21:44:12.033Z,98.72
2019-05-09T21:46:57.954Z,98.35
2019-05-09T21:49:44.166Z,98.48
2019-05-09T21:52:30.446Z,98.18
2019-05-09T21:55:16.486Z,98.33
2019-05-09T21:58:02.505Z,98.29
2019-05-09T22:00:48.447Z,98.26
2019-05-09T22:03:34.514Z,98.50
2019-05-09T22:06:20.484Z,98.67
2019-05-09T22:09:08.403Z,98.46
2019-05-09T22:11:54.639Z,98.89
2019-05-09T22:14:40.523Z,99.00
2019-05-09T22:17:39.880Z,98.95
2019-05-09T22:20:26.204Z,98.77
2019-05-09T22:23:12.238Z,97.60
2019-05-09T22:25:58.277Z,97.92
2019-05-09T22:28:44.262Z,97.65
2019-05-09T22:31:30.366Z,96.78
2019-05-09T22:34:16.422Z,96.31
2019-05-09T22:37:02.406Z,95.36
2019-05-09T22:39:48.548Z,94.83
2019-05-09T22:42:34.753Z,94.69
2019-05-09T22:45:20.697Z,93.74
2019-05-09T22:48:06.637Z,92.22
2019-05-09T22:50:52.843Z,92.26
2019-05-09T22:53:38.816Z,92.91
2019-05-09T22:56:25.660Z,92.47
2019-05-09T22:59:12.057Z,92.10
2019-05-09T23:01:58.049Z,92.42
2019-05-09T23:04:44.110Z,91.82
2019-05-09T23:07:30.263Z,91.48
2019-05-09T23:10:23.863Z,90.60
2019-05-09T23:13:10.066Z,90.50
2019-05-09T23:15:56.113Z,90.65
2019-05-09T23:18:42.044Z,90.47
2019-05-09T23:21:29.167Z,91.46
2019-05-09T23:24:28.130Z,91.05
2019-05-09T23:27:05.372Z,91.05
2019-05-09T23:29:51.373Z,91.31
2019-05-09T23:32:43.446Z,91.48
2019-05-09T23:35:29.657Z,91.33
2019-05-09T23:38:15.694Z,91.33
2019-05-09T23:41:01.576Z,90.74
2019-05-09T23:43:47.628Z,90.06
2019-05-09T23:46:33.682Z,89.46
2019-05-09T23:49:19.878Z,89.05
2019-05-09T23:52:05.850Z,87.88
2019-05-09T23:55:09.578Z,88.12
2019-05-09T23:58:13.347Z,88.22
